This is the latest recevied weather packets stored in our database for station/object WC4PEM-1. If no packets are shown the sender has not sent any weather packets the latest 10 day(s).
| Time | Temp. | Humidity | Pressure | Rain* | Wind** | Luminosity | Snow |
|---|---|---|---|---|---|---|---|
| 1777394323 | 27.78° C | 60% | 1018.7 hPa | 0 mm | - | 954 W/m² | - |
| 1777394129 | 27.78° C | 61% | 1018.9 hPa | 0 mm | - | 933 W/m² | - |
| 1777394023 | 27.78° C | 61% | 1018.9 hPa | 0 mm | - | 933 W/m² | - |
| 1777393723 | 27.22° C | 62% | 1018.9 hPa | 0 mm | - | 930 W/m² | - |
| 1777393423 | 27.22° C | 61% | 1019 hPa | 0 mm | - | 923 W/m² | - |
| 1777393123 | 27.78° C | 60% | 1019.1 hPa | 0 mm | - | 918 W/m² | - |
| 1777393016 | 27.78° C | 60% | 1019.1 hPa | 0 mm | - | 907 W/m² | - |
| 1777392823 | 27.78° C | 60% | 1019.1 hPa | 0 mm | - | 907 W/m² | - |
| 1777392523 | 27.78° C | 60% | 1019.3 hPa | 0 mm | - | 905 W/m² | - |
| 1777392223 | 27.78° C | 59% | 1019.4 hPa | 0 mm | - | 555 W/m² | - |
| 1777391925 | 27.78° C | 60% | 1019.6 hPa | 0 mm | - | 438 W/m² | - |
| 1777391623 | 27.22° C | 63% | 1019.6 hPa | 0 mm | - | 1039 W/m² | - |
| 1777391323 | 26.67° C | 66% | 1019.6 hPa | 0 mm | - | 1049 W/m² | - |
| 1777391023 | 26.67° C | 67% | 1019.7 hPa | 0 mm | - | 991 W/m² | - |
| 1777390723 | 26.67° C | 65% | 1019.6 hPa | 0 mm | - | 290 W/m² | - |
| 1777390541 | 26.67° C | 65% | 1019.6 hPa | 0 mm | - | 972 W/m² | - |
| 1777390423 | 26.67° C | 65% | 1019.6 hPa | 0 mm | - | 972 W/m² | - |
| 1777390123 | 26.67° C | 63% | 1019.6 hPa | 0 mm | - | 889 W/m² | - |
| 1777389823 | 26.11° C | 66% | 1019.6 hPa | 0 mm | - | 853 W/m² | - |
| 1777389523 | 26.11° C | 66% | 1019.6 hPa | 0 mm | - | 821 W/m² | - |
| 1777389415 | 26.11° C | 66% | 1019.5 hPa | 0 mm | - | 816 W/m² | - |
| 1777389223 | 26.11° C | 66% | 1019.5 hPa | 0 mm | - | 816 W/m² | - |
| 1777388923 | 25.56° C | 70% | 1019.4 hPa | 0 mm | - | 817 W/m² | - |
| 1777388625 | 25.56° C | 71% | 1019.5 hPa | 0 mm | - | 856 W/m² | - |
| 1777388323 | 24.44° C | 74% | 1019.5 hPa | 0 mm | - | 209 W/m² | - |
* Rain latest hour (hover to see other rain measurements)
** Current wind speed in m/s (hover to see current wind gust speed)